Time;durP1;ratioP1;P1;durP2;ratioP2;P2;SDS_P1;SDS_P2;PMS_P1;PMS_P2;Temp;Humidity;BMP_temperature;BMP_pressure;BME280_temperature;BME280_humidity;BME280_pressure;Samples;Min_cycle;Max_cycle;Signal;HPM_P1;HPM_P2
2023/02/28 00:00:29;;;;;;;7.20;6.80;;;0.50;99.90;;;;;;5034620;28;20309;-63
2023/02/28 00:02:55;;;;;;;6.93;6.63;;;0.50;99.90;;;;;;5052664;28;20262;-63
2023/02/28 00:05:23;;;;;;;7.10;6.80;;;0.50;99.90;;;;;;5045181;28;20270;-64
2023/02/28 00:07:50;;;;;;;6.90;6.60;;;0.50;99.90;;;;;;5032324;28;20183;-63
2023/02/28 00:10:20;;;;;;;7.53;7.17;;;0.50;99.90;;;;;;5037995;28;20198;-63
2023/02/28 00:12:47;;;;;;;7.00;6.70;;;0.40;99.90;;;;;;5052589;28;20257;-63
2023/02/28 00:15:13;;;;;;;8.17;7.70;;;0.50;99.90;;;;;;5051929;28;20163;-63
2023/02/28 00:17:38;;;;;;;7.17;6.87;;;0.40;99.90;;;;;;5052298;28;20170;-63
2023/02/28 00:20:09;;;;;;;7.20;6.80;;;0.40;99.90;;;;;;5036160;28;20203;-62
2023/02/28 00:22:36;;;;;;;6.90;6.60;;;0.30;99.90;;;;;;5032442;28;20182;-63
2023/02/28 00:25:03;;;;;;;7.67;7.17;;;0.30;99.90;;;;;;5033527;28;20215;-63
2023/02/28 00:27:29;;;;;;;7.03;6.63;;;0.30;99.90;;;;;;5032176;28;20221;-62
2023/02/28 00:29:55;;;;;;;7.37;6.97;;;0.30;99.90;;;;;;5043459;28;20194;-63
2023/02/28 00:32:21;;;;;;;8.67;7.67;;;0.20;99.90;;;;;;5052136;28;20667;-63
2023/02/28 00:34:47;;;;;;;7.33;6.83;;;0.20;99.90;;;;;;5040687;28;20648;-63
2023/02/28 00:37:12;;;;;;;8.03;7.63;;;0.20;99.90;;;;;;5032109;28;20185;-63
2023/02/28 00:39:39;;;;;;;8.03;7.63;;;0.20;99.90;;;;;;5040462;28;20198;-62
2023/02/28 00:42:05;;;;;;;8.07;7.57;;;0.20;99.90;;;;;;5035305;28;20325;-63
2023/02/28 00:44:31;;;;;;;7.43;7.03;;;0.20;99.90;;;;;;5032926;28;20227;-64
2023/02/28 00:46:57;;;;;;;7.50;7.10;;;0.10;99.90;;;;;;5031911;28;20547;-64
2023/02/28 00:49:23;;;;;;;7.27;6.97;;;0.10;99.90;;;;;;5037005;28;20274;-63
2023/02/28 00:51:49;;;;;;;7.53;7.13;;;0.10;99.90;;;;;;5051574;28;20174;-63
2023/02/28 00:54:16;;;;;;;7.47;7.07;;;0.00;99.90;;;;;;5047551;28;20262;-64
2023/02/28 00:56:41;;;;;;;7.13;6.83;;;0.10;99.90;;;;;;5031080;28;20766;-63
2023/02/28 00:59:07;;;;;;;7.60;7.20;;;0.10;99.90;;;;;;5033335;28;20210;-64
2023/02/28 01:01:33;;;;;;;7.57;6.87;;;0.10;99.90;;;;;;5051550;28;20183;-63
2023/02/28 01:03:58;;;;;;;7.23;6.90;;;0.10;99.90;;;;;;5050740;28;20442;-64
2023/02/28 01:06:24;;;;;;;7.60;7.20;;;0.00;99.90;;;;;;5031988;28;20171;-64
2023/02/28 01:08:50;;;;;;;6.97;6.57;;;0.00;99.90;;;;;;5031498;28;20719;-64
2023/02/28 01:11:17;;;;;;;7.50;7.10;;;0.00;99.90;;;;;;5049623;28;20516;-64
2023/02/28 01:13:44;;;;;;;7.40;7.10;;;0.00;99.90;;;;;;5036469;28;20210;-64
2023/02/28 01:16:09;;;;;;;7.27;6.87;;;-0.10;99.90;;;;;;5031322;28;20208;-64
2023/02/28 01:18:36;;;;;;;7.60;6.97;;;-0.10;99.90;;;;;;5043858;28;20683;-64
2023/02/28 01:21:10;;;;;;;7.97;7.30;;;-0.10;99.90;;;;;;5050682;28;20185;-64
2023/02/28 01:23:36;;;;;;;7.10;6.80;;;-0.10;99.90;;;;;;5038963;28;20664;-64
2023/02/28 01:26:17;;;;;;;7.47;7.17;;;-0.10;99.90;;;;;;5031196;28;20175;-64
2023/02/28 01:28:43;;;;;;;7.00;6.70;;;-0.10;99.90;;;;;;5043671;28;20647;-63
2023/02/28 01:31:09;;;;;;;7.53;6.93;;;-0.10;99.90;;;;;;5050967;28;20175;-64
2023/02/28 01:33:36;;;;;;;7.40;7.10;;;-0.10;99.90;;;;;;5040234;28;20171;-64
2023/02/28 01:36:04;;;;;;;7.13;6.73;;;-0.10;99.90;;;;;;5031076;28;20187;-64
2023/02/28 01:38:29;;;;;;;7.17;6.80;;;-0.10;99.90;;;;;;5032147;28;20679;-63
2023/02/28 01:40:56;;;;;;;7.37;6.97;;;-0.10;99.90;;;;;;5033542;28;20187;-64
2023/02/28 01:43:30;;;;;;;7.00;6.70;;;-0.20;99.90;;;;;;5036499;28;20206;-64
2023/02/28 01:45:57;;;;;;;7.00;6.70;;;-0.20;99.90;;;;;;5033912;28;20256;-63
2023/02/28 01:48:27;;;;;;;8.20;7.43;;;-0.20;99.90;;;;;;5042112;28;20589;-63
2023/02/28 01:50:59;;;;;;;7.50;7.10;;;-0.20;99.90;;;;;;5055024;28;20185;-63
2023/02/28 01:53:32;;;;;;;8.10;7.50;;;-0.30;99.90;;;;;;5048484;28;20194;-63
2023/02/28 01:55:58;;;;;;;6.67;6.37;;;-0.30;99.90;;;;;;5035018;28;20237;-63
2023/02/28 01:58:24;;;;;;;7.17;6.77;;;-0.30;99.90;;;;;;5041090;28;20202;-64
2023/02/28 02:00:50;;;;;;;6.90;6.60;;;-0.30;99.90;;;;;;5054723;28;20179;-63
2023/02/28 02:03:19;;;;;;;7.10;6.80;;;-0.40;99.90;;;;;;5050178;28;20217;-64
2023/02/28 02:05:48;;;;;;;7.80;7.43;;;-0.40;99.90;;;;;;5040331;28;20266;-64
2023/02/28 02:08:18;;;;;;;7.40;7.10;;;-0.40;99.90;;;;;;5034854;28;20167;-64
2023/02/28 02:10:49;;;;;;;8.23;7.83;;;-0.40;99.90;;;;;;5034807;28;20575;-63
2023/02/28 02:13:26;;;;;;;7.10;6.70;;;-0.40;99.90;;;;;;5037512;28;20770;-62
2023/02/28 02:16:35;;;;;;;7.40;7.03;;;-0.40;99.90;;;;;;5054822;28;20171;-64
2023/02/28 02:19:13;;;;;;;7.53;7.13;;;-0.40;99.90;;;;;;5017761;28;20310;-64
2023/02/28 02:22:22;;;;;;;7.80;7.50;;;-0.50;99.90;;;;;;5034688;28;20171;-63
2023/02/28 02:25:20;;;;;;;7.80;7.33;;;-0.50;99.90;;;;;;5030150;28;20233;-64
2023/02/28 02:27:51;;;;;;;7.17;6.87;;;-0.50;99.90;;;;;;5010031;28;20217;-64
2023/02/28 02:30:29;;;;;;;7.50;7.20;;;-0.50;99.90;;;;;;5034955;28;20293;-64
2023/02/28 02:33:14;;;;;;;8.00;7.67;;;-0.50;99.90;;;;;;5046366;28;20179;-63
2023/02/28 02:36:04;;;;;;;7.43;7.03;;;-0.50;99.90;;;;;;5054368;28;20171;-64
2023/02/28 02:38:48;;;;;;;7.43;7.03;;;-0.50;99.90;;;;;;5037546;28;20203;-64
2023/02/28 02:41:47;;;;;;;7.60;7.30;;;-0.50;99.90;;;;;;5066220;28;20176;-64
2023/02/28 02:44:27;;;;;;;7.53;7.13;;;-0.50;99.90;;;;;;5012068;28;20215;-64
2023/02/28 02:47:03;;;;;;;7.50;7.10;;;-0.60;99.90;;;;;;5017854;28;20164;-63
2023/02/28 02:49:32;;;;;;;7.53;7.23;;;-0.60;99.90;;;;;;5053786;28;20675;-64
2023/02/28 02:52:03;;;;;;;7.50;7.10;;;-0.60;99.90;;;;;;5050648;28;20187;-64
2023/02/28 02:54:33;;;;;;;7.60;7.20;;;-0.60;99.90;;;;;;5034154;28;20178;-64
2023/02/28 02:57:05;;;;;;;7.23;6.93;;;-0.60;99.90;;;;;;5035214;28;20262;-62
2023/02/28 02:59:31;;;;;;;7.23;6.93;;;-0.60;99.90;;;;;;5053445;28;20206;-64
2023/02/28 03:02:01;;;;;;;7.50;7.20;;;-0.50;99.90;;;;;;5053067;28;20267;-64
2023/02/28 03:04:32;;;;;;;7.23;6.93;;;-0.50;99.90;;;;;;5033827;28;20226;-63
2023/02/28 03:06:58;;;;;;;7.30;7.00;;;-0.50;99.90;;;;;;5033812;28;20542;-64
2023/02/28 03:09:25;;;;;;;6.70;6.40;;;-0.40;99.90;;;;;;5033214;28;20210;-63
2023/02/28 03:11:53;;;;;;;6.90;6.60;;;-0.30;99.90;;;;;;5033559;28;20168;-64
2023/02/28 03:14:30;;;;;;;6.93;6.63;;;-0.30;99.90;;;;;;5052005;28;20186;-64
2023/02/28 03:17:11;;;;;;;7.10;6.80;;;-0.30;99.90;;;;;;5052968;28;20177;-64
2023/02/28 03:20:03;;;;;;;7.50;7.10;;;-0.40;99.90;;;;;;5027435;28;20207;-65
2023/02/28 03:22:50;;;;;;;7.53;7.23;;;-0.50;99.90;;;;;;5017038;28;20180;-63
2023/02/28 03:25:43;;;;;;;7.87;7.47;;;-0.60;99.90;;;;;;5053111;28;20236;-64
2023/02/28 03:28:08;;;;;;;7.17;6.87;;;-0.70;99.90;;;;;;5046296;28;20178;-65
2023/02/28 03:30:57;;;;;;;6.83;6.53;;;-0.70;99.90;;;;;;5032914;28;20254;-64
2023/02/28 03:33:54;;;;;;;7.47;7.07;;;-0.80;99.90;;;;;;5040760;28;20181;-64
2023/02/28 03:36:26;;;;;;;7.40;7.10;;;-0.90;99.90;;;;;;5051162;28;20237;-64
2023/02/28 03:39:01;;;;;;;7.43;7.13;;;-1.10;99.90;;;;;;5052924;28;20202;-64
2023/02/28 03:41:42;;;;;;;7.47;7.17;;;-1.20;99.90;;;;;;5044052;28;20210;-64
2023/02/28 03:44:15;;;;;;;8.03;7.53;;;-1.30;99.90;;;;;;5032729;28;20206;-64
2023/02/28 03:46:56;;;;;;;7.30;7.00;;;-1.40;99.90;;;;;;5042427;28;20270;-65
2023/02/28 03:49:27;;;;;;;7.67;7.17;;;-1.50;99.90;;;;;;5052681;28;20199;-64
2023/02/28 03:51:56;;;;;;;7.40;7.10;;;-1.60;99.90;;;;;;5041875;28;20301;-63
2023/02/28 03:54:45;;;;;;;7.67;7.27;;;-1.70;99.90;;;;;;5032789;28;20521;-64
2023/02/28 03:57:36;;;;;;;8.00;7.43;;;-1.80;99.90;;;;;;5045168;28;20175;-63
2023/02/28 04:00:06;;;;;;;8.87;8.37;;;-1.90;99.90;;;;;;5052000;28;20245;-63
2023/02/28 04:02:33;;;;;;;8.40;7.70;;;-2.00;99.90;;;;;;5050443;28;20652;-63
2023/02/28 04:05:00;;;;;;;8.03;7.63;;;-2.00;99.90;;;;;;5053080;28;20266;-63
2023/02/28 04:07:29;;;;;;;9.47;8.80;;;-2.00;99.90;;;;;;5038057;28;20187;-64
2023/02/28 04:09:55;;;;;;;8.17;7.67;;;-2.10;99.90;;;;;;5032059;28;20191;-63
2023/02/28 04:12:22;;;;;;;7.80;7.43;;;-2.10;99.90;;;;;;5045758;28;20182;-64
2023/02/28 04:14:48;;;;;;;8.07;7.60;;;-2.10;99.90;;;;;;5052241;28;20561;-64
2023/02/28 04:17:14;;;;;;;8.03;7.63;;;-2.10;99.90;;;;;;5039255;28;20183;-64
2023/02/28 04:19:40;;;;;;;8.57;8.17;;;-2.10;99.90;;;;;;5030602;28;20191;-64
2023/02/28 04:22:07;;;;;;;8.77;8.13;;;-2.10;99.90;;;;;;5041371;28;20204;-64
2023/02/28 04:24:33;;;;;;;8.00;7.53;;;-2.20;99.90;;;;;;5051970;28;20194;-63
2023/02/28 04:26:58;;;;;;;7.40;7.00;;;-2.20;99.90;;;;;;5050280;28;20209;-64
2023/02/28 04:29:30;;;;;;;8.83;8.43;;;-2.20;99.90;;;;;;5051650;28;20924;-65
2023/02/28 04:31:57;;;;;;;8.17;7.67;;;-2.20;99.90;;;;;;5032932;28;20199;-64
2023/02/28 04:34:24;;;;;;;8.03;7.43;;;-2.20;99.90;;;;;;5036122;28;20266;-64
2023/02/28 04:36:50;;;;;;;7.97;7.67;;;-2.20;99.90;;;;;;5051743;28;20193;-63
2023/02/28 04:39:19;;;;;;;8.17;7.50;;;-2.20;99.90;;;;;;5047165;28;20195;-64
2023/02/28 04:41:46;;;;;;;7.50;7.10;;;-2.20;99.90;;;;;;5031852;28;20221;-64
2023/02/28 04:44:11;;;;;;;8.00;7.60;;;-2.20;99.90;;;;;;5034456;28;20194;-64
2023/02/28 04:46:37;;;;;;;7.10;6.80;;;-2.20;99.90;;;;;;5052076;28;20178;-64
2023/02/28 04:49:03;;;;;;;8.47;7.63;;;-2.20;99.90;;;;;;5049854;28;20248;-65
2023/02/28 04:51:29;;;;;;;7.50;7.10;;;-2.10;99.90;;;;;;5031629;28;20184;-64
2023/02/28 04:53:55;;;;;;;7.40;7.00;;;-2.00;99.90;;;;;;5031412;28;20182;-65
2023/02/28 04:56:21;;;;;;;7.40;7.10;;;-1.80;99.90;;;;;;5050810;28;20185;-62
2023/02/28 04:58:47;;;;;;;8.00;7.70;;;-1.60;99.90;;;;;;5051548;28;20696;-64
2023/02/28 05:01:24;;;;;;;7.80;7.30;;;-1.50;99.90;;;;;;5032838;28;20184;-63
2023/02/28 05:03:52;;;;;;;8.13;7.77;;;-1.40;99.90;;;;;;5048445;28;20561;-65
2023/02/28 05:06:20;;;;;;;8.47;7.80;;;-1.40;99.90;;;;;;5051344;28;20569;-64
2023/02/28 05:08:45;;;;;;;8.67;8.23;;;-1.40;99.90;;;;;;5035082;28;20677;-64
2023/02/28 05:11:20;;;;;;;8.10;7.70;;;-1.30;99.90;;;;;;5031079;28;20256;-62
2023/02/28 05:13:47;;;;;;;8.63;8.23;;;-1.30;99.90;;;;;;5046942;28;20670;-63
2023/02/28 05:16:12;;;;;;;8.87;8.37;;;-1.30;99.90;;;;;;5050531;28;20636;-64
2023/02/28 05:18:38;;;;;;;8.37;7.87;;;-1.30;99.90;;;;;;5036977;28;20233;-63
2023/02/28 05:21:04;;;;;;;9.23;8.63;;;-1.30;99.90;;;;;;5030905;28;20172;-64
2023/02/28 05:23:30;;;;;;;8.33;7.93;;;-1.40;99.90;;;;;;5043568;28;20202;-63
2023/02/28 05:25:55;;;;;;;8.37;7.97;;;-1.40;99.90;;;;;;5048375;28;20648;-64
2023/02/28 05:28:21;;;;;;;8.07;7.77;;;-1.40;99.90;;;;;;5049835;28;20218;-63
2023/02/28 05:30:47;;;;;;;8.73;8.33;;;-1.50;99.90;;;;;;5041559;28;20180;-64
2023/02/28 05:33:13;;;;;;;8.73;8.33;;;-1.50;99.90;;;;;;5031249;28;20270;-63
2023/02/28 05:35:40;;;;;;;8.43;8.03;;;-1.60;99.90;;;;;;5038263;28;20205;-64
2023/02/28 05:38:06;;;;;;;8.20;7.87;;;-1.60;99.90;;;;;;5050694;28;20266;-65
2023/02/28 05:40:32;;;;;;;8.60;8.20;;;-1.60;99.90;;;;;;5044730;28;20258;-60
2023/02/28 05:42:58;;;;;;;8.43;7.97;;;-1.60;99.90;;;;;;5030843;28;20214;-62
2023/02/28 05:45:23;;;;;;;8.13;7.73;;;-1.60;99.90;;;;;;5034978;28;20600;-63
2023/02/28 05:47:52;;;;;;;8.30;7.90;;;-1.60;99.90;;;;;;5050821;28;20220;-63
2023/02/28 05:50:18;;;;;;;8.60;8.10;;;-1.70;99.90;;;;;;5047430;28;20186;-64
2023/02/28 05:52:43;;;;;;;8.47;8.00;;;-1.70;99.90;;;;;;5030885;28;20174;-64
2023/02/28 05:55:09;;;;;;;8.77;8.20;;;-1.70;99.90;;;;;;5031884;28;20178;-64
2023/02/28 05:57:35;;;;;;;8.47;8.07;;;-1.70;99.90;;;;;;5050806;28;20166;-63
2023/02/28 06:00:00;;;;;;;9.07;8.67;;;-1.70;99.90;;;;;;5031078;28;20227;-64
2023/02/28 06:02:26;;;;;;;8.23;7.87;;;-1.70;99.90;;;;;;5045726;28;20524;-63
2023/02/28 06:04:52;;;;;;;8.73;8.17;;;-1.70;99.90;;;;;;5050624;28;20213;-64
2023/02/28 06:07:17;;;;;;;8.13;7.73;;;-1.80;99.90;;;;;;5040581;28;20656;-64
2023/02/28 06:09:43;;;;;;;8.63;8.23;;;-1.80;99.90;;;;;;5030117;28;20190;-64
2023/02/28 06:12:10;;;;;;;8.10;7.80;;;-1.80;99.90;;;;;;5029259;28;20206;-63
2023/02/28 06:14:36;;;;;;;8.40;7.90;;;-1.90;99.90;;;;;;5030502;28;20172;-64
2023/02/28 06:17:02;;;;;;;7.93;7.53;;;-1.90;99.90;;;;;;5030851;28;20189;-64
2023/02/28 06:19:29;;;;;;;8.57;8.17;;;-2.00;99.90;;;;;;5030251;28;20202;-63
2023/02/28 06:21:56;;;;;;;7.53;7.23;;;-2.00;99.90;;;;;;5038260;28;20253;-64
2023/02/28 06:24:23;;;;;;;7.70;7.40;;;-2.00;99.90;;;;;;5050373;28;20198;-64
2023/02/28 06:26:50;;;;;;;8.27;7.67;;;-2.00;99.90;;;;;;5051189;28;20266;-64
2023/02/28 06:29:16;;;;;;;8.77;8.30;;;-1.90;99.90;;;;;;5054157;28;20275;-64
2023/02/28 06:31:43;;;;;;;7.83;7.53;;;-1.90;99.90;;;;;;5046742;28;20175;-64
2023/02/28 06:34:11;;;;;;;8.40;8.00;;;-1.90;99.90;;;;;;5034038;28;20175;-63
2023/02/28 06:36:41;;;;;;;8.23;7.83;;;-1.80;99.90;;;;;;5040005;28;20177;-62
2023/02/28 06:39:07;;;;;;;7.70;7.40;;;-1.80;99.90;;;;;;5053595;28;20198;-63
2023/02/28 06:41:37;;;;;;;8.00;7.60;;;-1.80;99.90;;;;;;5049127;28;20205;-64
2023/02/28 06:44:05;;;;;;;7.93;7.63;;;-1.80;99.90;;;;;;5033818;28;20743;-64
2023/02/28 06:46:32;;;;;;;7.53;7.23;;;-1.70;99.90;;;;;;5037682;28;20179;-64
2023/02/28 06:48:58;;;;;;;9.00;8.60;;;-1.80;99.90;;;;;;5054004;28;20249;-64
2023/02/28 06:51:24;;;;;;;8.77;7.97;;;-1.70;99.90;;;;;;5051322;28;20688;-63
2023/02/28 06:53:50;;;;;;;8.37;7.87;;;-1.70;99.90;;;;;;5035134;28;20176;-64
2023/02/28 06:56:17;;;;;;;7.83;7.43;;;-1.60;99.90;;;;;;5051664;28;20535;-62
2023/02/28 06:58:45;;;;;;;7.90;7.47;;;-1.60;99.90;;;;;;5033731;28;20225;-64
2023/02/28 07:01:13;;;;;;;7.90;7.30;;;-1.50;99.90;;;;;;5033452;28;20171;-64
2023/02/28 07:03:38;;;;;;;8.10;7.70;;;-1.40;99.90;;;;;;5032603;28;20207;-65
2023/02/28 07:06:05;;;;;;;7.80;7.20;;;-1.30;99.90;;;;;;5033697;28;20254;-64
2023/02/28 07:08:31;;;;;;;7.73;7.43;;;-1.20;99.90;;;;;;5049735;28;20202;-64
2023/02/28 07:10:58;;;;;;;7.37;7.07;;;-1.10;99.90;;;;;;5052937;28;20163;-64
2023/02/28 07:13:24;;;;;;;7.20;6.90;;;-1.00;99.90;;;;;;5038207;28;20278;-63
2023/02/28 07:15:57;;;;;;;7.80;7.40;;;-0.80;99.90;;;;;;5033253;28;20168;-65
2023/02/28 07:18:23;;;;;;;7.27;6.87;;;-0.70;99.90;;;;;;5047232;28;20301;-65
2023/02/28 07:20:49;;;;;;;7.20;6.90;;;-0.60;99.90;;;;;;5052820;28;20253;-64
2023/02/28 07:23:15;;;;;;;7.93;7.43;;;-0.50;99.90;;;;;;5042445;28;20200;-64
2023/02/28 07:25:41;;;;;;;7.13;6.83;;;-0.30;99.90;;;;;;5033528;28;20178;-64
2023/02/28 07:28:06;;;;;;;7.60;6.87;;;-0.10;99.90;;;;;;5041538;28;20197;-64
2023/02/28 07:30:32;;;;;;;6.37;6.07;;;0.30;99.90;;;;;;5037103;28;20162;-64
2023/02/28 07:32:58;;;;;;;6.87;6.50;;;0.70;99.90;;;;;;5031942;28;20179;-64
2023/02/28 07:35:23;;;;;;;7.37;6.97;;;1.10;99.90;;;;;;5033023;28;20183;-64
2023/02/28 07:37:49;;;;;;;6.90;6.60;;;1.30;99.90;;;;;;5031140;28;20171;-64
2023/02/28 07:40:16;;;;;;;7.10;6.70;;;1.50;99.90;;;;;;5033565;28;20194;-65
2023/02/28 07:42:44;;;;;;;6.70;6.40;;;1.70;99.90;;;;;;5052210;28;20644;-64
2023/02/28 07:45:11;;;;;;;6.47;6.17;;;1.90;99.90;;;;;;5052515;28;20275;-64
2023/02/28 07:47:41;;;;;;;6.90;6.40;;;2.10;99.90;;;;;;5013340;28;20176;-64
2023/02/28 07:50:08;;;;;;;6.70;6.30;;;2.20;99.90;;;;;;5016463;28;20285;-64
2023/02/28 07:52:35;;;;;;;6.40;6.10;;;2.40;99.90;;;;;;5031730;28;20174;-64
2023/02/28 07:55:01;;;;;;;6.17;5.87;;;2.50;99.90;;;;;;5033481;28;20175;-64
2023/02/28 07:57:26;;;;;;;6.33;5.93;;;2.60;99.90;;;;;;5051457;28;20175;-64
2023/02/28 07:59:52;;;;;;;6.40;6.00;;;2.80;99.90;;;;;;5049482;28;20214;-63
2023/02/28 08:02:18;;;;;;;6.77;6.47;;;2.80;99.90;;;;;;5051821;28;20186;-63
2023/02/28 08:04:45;;;;;;;7.03;6.63;;;2.90;99.30;;;;;;5048105;28;20207;-63
2023/02/28 08:07:12;;;;;;;7.03;6.73;;;3.00;99.10;;;;;;5035580;28;20518;-63
2023/02/28 08:09:39;;;;;;;7.37;6.97;;;3.20;97.40;;;;;;5033456;28;20567;-64
2023/02/28 08:12:05;;;;;;;8.13;7.53;;;3.20;95.30;;;;;;5033378;28;20263;-63
2023/02/28 08:14:31;;;;;;;7.30;7.00;;;3.40;94.50;;;;;;5053037;28;20182;-63
2023/02/28 08:16:56;;;;;;;6.90;6.60;;;3.50;93.40;;;;;;5052255;28;20175;-64
2023/02/28 08:19:22;;;;;;;6.37;6.07;;;3.60;92.80;;;;;;5050709;28;20198;-64
2023/02/28 08:21:47;;;;;;;6.50;5.90;;;3.80;91.30;;;;;;5052261;28;20700;-63
2023/02/28 08:24:13;;;;;;;5.43;5.23;;;4.00;88.20;;;;;;5049530;28;20263;-64
2023/02/28 08:26:38;;;;;;;5.70;5.40;;;4.10;87.50;;;;;;5052492;28;20572;-63
2023/02/28 08:29:04;;;;;;;5.33;5.07;;;4.20;84.90;;;;;;5033875;28;20235;-64
2023/02/28 08:31:30;;;;;;;7.03;6.73;;;4.40;83.40;;;;;;5032199;28;20170;-64
2023/02/28 08:33:58;;;;;;;5.70;5.40;;;4.50;77.90;;;;;;5033214;28;20175;-64
2023/02/28 08:36:25;;;;;;;5.90;5.60;;;4.60;80.30;;;;;;5032250;28;20171;-64
2023/02/28 08:38:51;;;;;;;5.50;5.20;;;4.70;77.50;;;;;;5044838;28;20234;-63
2023/02/28 08:41:17;;;;;;;5.80;5.50;;;4.70;75.20;;;;;;5052004;28;20221;-64
2023/02/28 08:43:43;;;;;;;5.23;5.03;;;4.80;73.20;;;;;;5040071;28;20200;-64
2023/02/28 08:46:12;;;;;;;5.80;5.50;;;4.80;73.00;;;;;;5031946;28;20637;-63
2023/02/28 08:48:37;;;;;;;5.70;5.40;;;4.80;70.40;;;;;;5041870;28;20278;-63
2023/02/28 08:51:21;;;;;;;5.30;5.10;;;5.00;71.70;;;;;;5050852;28;20266;-63
2023/02/28 08:53:49;;;;;;;5.37;5.07;;;5.40;71.30;;;;;;5041089;28;20724;-63
2023/02/28 08:56:16;;;;;;;5.20;4.90;;;5.60;70.00;;;;;;5031745;28;20175;-64
2023/02/28 08:58:42;;;;;;;5.77;5.43;;;5.70;67.40;;;;;;5041230;28;20256;-64
2023/02/28 09:01:14;;;;;;;5.83;5.53;;;5.80;63.20;;;;;;5049615;28;20182;-64
2023/02/28 09:03:43;;;;;;;5.57;5.17;;;5.90;62.60;;;;;;5042810;28;20207;-64
2023/02/28 09:06:10;;;;;;;5.67;5.37;;;5.80;58.80;;;;;;5031631;28;20225;-64
2023/02/28 09:08:36;;;;;;;5.43;5.03;;;5.90;58.40;;;;;;5039300;28;20677;-64
2023/02/28 09:11:02;;;;;;;5.30;5.00;;;5.90;54.90;;;;;;5052607;28;20258;-64
2023/02/28 09:13:29;;;;;;;4.90;4.60;;;6.00;55.50;;;;;;5045132;28;20172;-64
2023/02/28 09:15:58;;;;;;;4.77;4.57;;;6.10;55.10;;;;;;5031554;28;20645;-64
2023/02/28 09:18:24;;;;;;;4.97;4.73;;;6.20;55.30;;;;;;5035851;28;20714;-64
2023/02/28 09:20:50;;;;;;;5.40;5.20;;;6.40;52.90;;;;;;5049885;28;20175;-63
2023/02/28 09:23:16;;;;;;;5.57;5.30;;;6.50;53.50;;;;;;5046853;28;20441;-64
2023/02/28 09:25:47;;;;;;;6.20;5.90;;;6.70;53.30;;;;;;5030618;28;20175;-64
2023/02/28 09:28:15;;;;;;;5.97;5.67;;;6.80;53.30;;;;;;5041537;28;20197;-64
2023/02/28 09:30:41;;;;;;;5.10;4.90;;;6.80;53.00;;;;;;5050974;28;20185;-64
2023/02/28 09:33:07;;;;;;;5.20;5.00;;;7.00;52.60;;;;;;5041223;28;20193;-63
2023/02/28 09:35:33;;;;;;;5.63;5.33;;;6.90;52.00;;;;;;5031366;28;20171;-64
2023/02/28 09:37:58;;;;;;;5.97;5.67;;;7.10;49.50;;;;;;5038604;28;20178;-64
2023/02/28 09:40:25;;;;;;;5.37;5.07;;;6.80;50.50;;;;;;5050753;28;20187;-64
2023/02/28 09:42:54;;;;;;;5.50;5.30;;;6.80;51.40;;;;;;5044390;28;20246;-64
2023/02/28 09:45:25;;;;;;;5.67;5.37;;;6.80;50.70;;;;;;5034356;28;20202;-64
2023/02/28 09:47:53;;;;;;;5.97;5.67;;;6.70;50.00;;;;;;5050375;28;20175;-64
2023/02/28 09:50:41;;;;;;;6.03;5.70;;;6.60;51.10;;;;;;5045552;28;20191;-64
2023/02/28 09:53:33;;;;;;;5.97;5.67;;;6.70;51.20;;;;;;5029857;28;20668;-63
2023/02/28 09:56:15;;;;;;;5.30;5.00;;;6.50;51.20;;;;;;5030106;28;20270;-64
2023/02/28 09:58:56;;;;;;;5.77;5.47;;;6.40;50.90;;;;;;5032683;28;20218;-64
2023/02/28 10:01:32;;;;;;;5.70;5.50;;;6.70;52.20;;;;;;5052408;28;20186;-64
2023/02/28 10:04:24;;;;;;;6.20;5.83;;;6.80;50.60;;;;;;5050700;28;20222;-64
2023/02/28 10:06:51;;;;;;;5.60;5.40;;;6.80;50.90;;;;;;5034954;28;20187;-64
2023/02/28 10:09:22;;;;;;;5.83;5.47;;;6.90;50.90;;;;;;5036599;28;20184;-64
2023/02/28 10:11:50;;;;;;;6.97;6.33;;;6.90;51.10;;;;;;5044389;28;20709;-64
2023/02/28 10:14:17;;;;;;;6.40;5.90;;;6.70;50.30;;;;;;5034929;28;20180;-64
2023/02/28 10:16:46;;;;;;;5.70;5.40;;;6.80;53.30;;;;;;5034754;28;20179;-64
2023/02/28 10:19:34;;;;;;;5.50;5.20;;;7.00;50.60;;;;;;5037683;28;20726;-63
2023/02/28 10:22:13;;;;;;;5.37;5.17;;;7.00;49.80;;;;;;5054794;28;20270;-64
2023/02/28 10:24:42;;;;;;;5.57;5.37;;;7.10;51.10;;;;;;5040246;28;20206;-64
2023/02/28 10:27:27;;;;;;;5.60;5.30;;;7.30;51.70;;;;;;5035076;28;20738;-64
2023/02/28 10:29:55;;;;;;;5.67;5.37;;;7.10;48.90;;;;;;5049928;28;20222;-64
2023/02/28 10:32:28;;;;;;;5.87;5.57;;;6.90;49.10;;;;;;5054768;28;20174;-63
2023/02/28 10:35:06;;;;;;;5.77;5.47;;;6.70;49.50;;;;;;5038968;28;20175;-64
2023/02/28 10:37:32;;;;;;;5.70;5.47;;;6.80;50.40;;;;;;5034607;28;20175;-65
2023/02/28 10:39:58;;;;;;;6.00;5.60;;;7.00;49.80;;;;;;5049165;28;20190;-64
2023/02/28 10:42:26;;;;;;;5.83;5.53;;;6.90;51.30;;;;;;5054189;28;20236;-64
2023/02/28 10:45:06;;;;;;;5.57;5.27;;;6.90;51.00;;;;;;5040091;28;20257;-64
2023/02/28 10:47:34;;;;;;;5.60;5.30;;;7.10;49.70;;;;;;5033536;28;20257;-64
2023/02/28 10:50:00;;;;;;;5.13;4.93;;;7.30;51.30;;;;;;5036649;28;20218;-64
2023/02/28 10:52:40;;;;;;;5.53;5.13;;;7.50;50.80;;;;;;5046083;28;20174;-64
2023/02/28 10:55:21;;;;;;;5.30;5.03;;;7.50;49.20;;;;;;5054204;28;20178;-63
2023/02/28 10:57:48;;;;;;;5.20;5.00;;;7.40;49.70;;;;;;5039259;28;20266;-64
2023/02/28 11:00:30;;;;;;;4.97;4.67;;;7.60;49.80;;;;;;5033641;28;20211;-64
2023/02/28 11:02:56;;;;;;;4.87;4.67;;;7.80;50.40;;;;;;5049411;28;20182;-64
2023/02/28 11:05:25;;;;;;;5.00;4.80;;;7.70;49.50;;;;;;5053897;28;20280;-64
2023/02/28 11:08:05;;;;;;;5.13;4.73;;;7.90;50.80;;;;;;5039878;28;20175;-64
2023/02/28 11:10:34;;;;;;;5.17;4.87;;;8.10;51.00;;;;;;5036037;28;20672;-64
2023/02/28 11:13:01;;;;;;;13.13;7.20;;;8.20;48.90;;;;;;5052940;28;20220;-64
2023/02/28 11:15:33;;;;;;;5.60;5.20;;;8.30;49.30;;;;;;5052057;28;20674;-63
2023/02/28 11:18:26;;;;;;;4.67;4.47;;;8.40;48.30;;;;;;5033855;28;20174;-63
2023/02/28 11:20:56;;;;;;;5.67;5.37;;;8.40;46.40;;;;;;5039560;28;20176;-64
2023/02/28 11:23:26;;;;;;;5.00;4.80;;;8.30;45.70;;;;;;5033899;28;20164;-64
2023/02/28 11:25:56;;;;;;;5.70;5.33;;;8.10;48.00;;;;;;5048497;28;20674;-64
2023/02/28 11:28:32;;;;;;;5.50;5.10;;;8.00;48.30;;;;;;5053518;28;20209;-64
2023/02/28 11:31:19;;;;;;;5.97;5.37;;;8.00;47.10;;;;;;5037585;28;20175;-64
2023/02/28 11:33:53;;;;;;;5.13;4.83;;;8.20;47.80;;;;;;5033653;28;20258;-64
2023/02/28 11:36:27;;;;;;;4.40;4.20;;;8.80;47.60;;;;;;5034634;28;20183;-64
2023/02/28 11:38:55;;;;;;;4.50;4.30;;;9.00;46.00;;;;;;5034521;28;20269;-64
2023/02/28 11:41:21;;;;;;;5.07;4.63;;;9.00;45.80;;;;;;5033112;28;20684;-64
2023/02/28 11:43:52;;;;;;;4.80;4.60;;;9.10;48.50;;;;;;5034452;28;20227;-63
2023/02/28 11:46:44;;;;;;;5.13;4.83;;;9.30;46.60;;;;;;5033293;28;20167;-64
2023/02/28 11:49:35;;;;;;;4.77;4.47;;;9.40;44.20;;;;;;5042680;28;20195;-64
2023/02/28 11:52:16;;;;;;;5.03;4.83;;;9.20;46.00;;;;;;5053120;28;20242;-64
2023/02/28 11:55:37;;;;;;;5.13;4.90;;;8.20;46.50;;;;;;5037754;28;20210;-64
2023/02/28 11:58:21;;;;;;;5.90;5.50;;;8.30;46.60;;;;;;4990166;28;20204;-63
2023/02/28 12:01:11;;;;;;;6.10;5.77;;;7.70;47.30;;;;;;5012849;28;20168;-64
2023/02/28 12:04:08;;;;;;;6.13;5.77;;;7.10;48.00;;;;;;5024878;28;20229;-64
2023/02/28 12:06:45;;;;;;;5.80;5.50;;;6.80;50.20;;;;;;5037675;28;20258;-64
2023/02/28 12:09:27;;;;;;;5.63;5.37;;;7.10;50.70;;;;;;5052326;28;20281;-65
2023/02/28 12:12:10;;;;;;;5.60;5.30;;;7.40;50.40;;;;;;5045129;28;20183;-64
2023/02/28 12:15:15;;;;;;;5.77;5.43;;;7.30;49.90;;;;;;5032643;28;20168;-65
2023/02/28 12:17:56;;;;;;;5.90;5.53;;;7.00;48.30;;;;;;5044577;28;20166;-64
2023/02/28 12:20:46;;;;;;;5.30;5.10;;;6.70;50.00;;;;;;5052203;28;20191;-65
2023/02/28 12:23:20;;;;;;;5.20;5.00;;;7.20;52.80;;;;;;5034609;28;20314;-65
2023/02/28 12:25:47;;;;;;;5.20;4.90;;;7.80;50.70;;;;;;5032285;28;20177;-64
2023/02/28 12:28:17;;;;;;;5.60;5.20;;;8.40;50.70;;;;;;5048554;28;20179;-65
2023/02/28 12:31:10;;;;;;;5.23;4.93;;;8.70;48.60;;;;;;5052023;28;20164;-64
2023/02/28 12:33:42;;;;;;;5.40;5.00;;;9.20;48.20;;;;;;5033221;28;20183;-65
2023/02/28 12:36:17;;;;;;;5.03;4.80;;;9.30;48.00;;;;;;5049909;28;20247;-64
2023/02/28 12:38:53;;;;;;;5.00;4.70;;;8.90;44.60;;;;;;5052196;28;20198;-65
2023/02/28 12:41:40;;;;;;;5.50;5.20;;;8.80;45.90;;;;;;5032939;28;20244;-64
2023/02/28 12:44:14;;;;;;;4.80;4.40;;;9.00;48.80;;;;;;5031776;28;20277;-63
2023/02/28 12:46:48;;;;;;;5.00;4.60;;;9.20;46.00;;;;;;5044585;28;20184;-63
2023/02/28 12:49:27;;;;;;;5.10;4.80;;;9.50;47.00;;;;;;5032044;28;20186;-64
2023/02/28 12:51:53;;;;;;;5.00;4.70;;;9.60;46.20;;;;;;5051716;28;20171;-64
2023/02/28 12:54:49;;;;;;;5.80;5.30;;;9.60;47.60;;;;;;5051034;28;20246;-63
2023/02/28 12:57:49;;;;;;;4.93;4.60;;;9.40;49.00;;;;;;5011445;28;20168;-64
2023/02/28 13:00:20;;;;;;;5.13;4.83;;;9.50;46.30;;;;;;5026931;28;20225;-64
2023/02/28 13:03:20;;;;;;;4.90;4.70;;;9.50;48.10;;;;;;5045188;28;20184;-64
2023/02/28 13:06:17;;;;;;;4.83;4.60;;;9.30;47.60;;;;;;5031868;28;20645;-64
2023/02/28 13:09:12;;;;;;;4.73;4.53;;;9.10;48.40;;;;;;5045149;28;20190;-65
2023/02/28 13:11:51;;;;;;;5.53;5.20;;;8.70;45.60;;;;;;5050497;28;20175;-64
2023/02/28 13:14:32;;;;;;;4.97;4.70;;;8.70;47.90;;;;;;5033661;28;20183;-65